sensor_id;sensor_type;location;lat;lon;timestamp;temperature;humidity
42145;DHT22;27813;43.516;11.890;2022-07-23T03:23:18;19.10;53.40
42145;DHT22;27813;43.516;11.890;2022-07-23T03:27:25;19.00;53.50
42145;DHT22;27813;43.516;11.890;2022-07-23T03:31:30;19.00;53.70
42145;DHT22;27813;43.516;11.890;2022-07-23T03:35:35;18.90;53.90
42145;DHT22;27813;43.516;11.890;2022-07-23T03:40:01;18.90;54.10
42145;DHT22;27813;43.516;11.890;2022-07-23T03:44:05;18.90;54.60
42145;DHT22;27813;43.516;11.890;2022-07-23T03:48:09;18.90;54.50
42145;DHT22;27813;43.516;11.890;2022-07-23T03:52:14;18.90;54.60
42145;DHT22;27813;43.516;11.890;2022-07-23T03:56:18;18.90;54.70
42145;DHT22;27813;43.516;11.890;2022-07-23T04:00:22;18.80;54.90
42145;DHT22;27813;43.516;11.890;2022-07-23T04:04:27;18.70;55.10
42145;DHT22;27813;43.516;11.890;2022-07-23T04:08:33;18.80;55.20
42145;DHT22;27813;43.516;11.890;2022-07-23T04:12:40;18.80;55.40
42145;DHT22;27813;43.516;11.890;2022-07-23T04:16:44;18.80;55.60
42145;DHT22;27813;43.516;11.890;2022-07-23T04:20:51;18.90;55.60
42145;DHT22;27813;43.516;11.890;2022-07-23T04:24:56;19.00;55.50
42145;DHT22;27813;43.516;11.890;2022-07-23T04:29:00;19.10;55.60
42145;DHT22;27813;43.516;11.890;2022-07-23T04:33:05;19.20;55.50
42145;DHT22;27813;43.516;11.890;2022-07-23T04:37:13;19.30;55.50
42145;DHT22;27813;43.516;11.890;2022-07-23T04:41:17;19.50;55.30
42145;DHT22;27813;43.516;11.890;2022-07-23T04:45:21;20.40;54.50
42145;DHT22;27813;43.516;11.890;2022-07-23T04:49:27;21.80;51.60
42145;DHT22;27813;43.516;11.890;2022-07-23T04:53:32;23.10;49.20
42145;DHT22;27813;43.516;11.890;2022-07-23T04:57:36;24.00;47.50
42145;DHT22;27813;43.516;11.890;2022-07-23T05:01:40;24.80;46.40
42145;DHT22;27813;43.516;11.890;2022-07-23T05:05:46;25.40;45.80
42145;DHT22;27813;43.516;11.890;2022-07-23T05:09:53;26.00;45.20
42145;DHT22;27813;43.516;11.890;2022-07-23T05:13:57;26.70;44.20
42145;DHT22;27813;43.516;11.890;2022-07-23T05:18:02;27.40;43.60
42145;DHT22;27813;43.516;11.890;2022-07-23T05:22:07;28.00;42.70
42145;DHT22;27813;43.516;11.890;2022-07-23T05:26:12;28.60;41.90
42145;DHT22;27813;43.516;11.890;2022-07-23T05:30:17;29.00;41.30
42145;DHT22;27813;43.516;11.890;2022-07-23T05:34:24;29.50;40.70
42145;DHT22;27813;43.516;11.890;2022-07-23T05:38:28;30.00;40.30
42145;DHT22;27813;43.516;11.890;2022-07-23T05:42:39;30.50;39.80
42145;DHT22;27813;43.516;11.890;2022-07-23T05:46:44;31.10;38.70
42145;DHT22;27813;43.516;11.890;2022-07-23T05:50:53;31.80;37.70
42145;DHT22;27813;43.516;11.890;2022-07-23T05:55:09;32.40;36.80
42145;DHT22;27813;43.516;11.890;2022-07-23T05:59:13;32.90;35.90
42145;DHT22;27813;43.516;11.890;2022-07-23T06:03:19;33.40;35.00
42145;DHT22;27813;43.516;11.890;2022-07-23T06:07:24;33.80;34.30
42145;DHT22;27813;43.516;11.890;2022-07-23T06:11:28;34.40;33.50
42145;DHT22;27813;43.516;11.890;2022-07-23T06:15:35;34.90;32.70
42145;DHT22;27813;43.516;11.890;2022-07-23T06:19:39;35.40;32.10
42145;DHT22;27813;43.516;11.890;2022-07-23T06:23:43;35.80;31.50
42145;DHT22;27813;43.516;11.890;2022-07-23T06:27:48;36.20;30.80
42145;DHT22;27813;43.516;11.890;2022-07-23T06:31:52;36.70;30.30
42145;DHT22;27813;43.516;11.890;2022-07-23T06:35:57;37.10;29.90
42145;DHT22;27813;43.516;11.890;2022-07-23T06:40:02;37.50;29.50
42145;DHT22;27813;43.516;11.890;2022-07-23T06:44:12;37.90;29.10
42145;DHT22;27813;43.516;11.890;2022-07-23T06:48:19;38.10;28.70
42145;DHT22;27813;43.516;11.890;2022-07-23T06:52:23;38.50;28.50
42145;DHT22;27813;43.516;11.890;2022-07-23T06:56:27;38.80;28.10
42145;DHT22;27813;43.516;11.890;2022-07-23T07:00:31;39.00;27.60
42145;DHT22;27813;43.516;11.890;2022-07-23T07:04:36;39.20;27.00
42145;DHT22;27813;43.516;11.890;2022-07-23T07:08:41;38.90;27.00
42145;DHT22;27813;43.516;11.890;2022-07-23T07:12:47;37.40;28.50
42145;DHT22;27813;43.516;11.890;2022-07-23T07:16:53;35.70;30.40
42145;DHT22;27813;43.516;11.890;2022-07-23T07:20:57;34.60;31.80
42145;DHT22;27813;43.516;11.890;2022-07-23T07:25:02;33.80;32.90
42145;DHT22;27813;43.516;11.890;2022-07-23T07:29:07;33.20;33.50
42145;DHT22;27813;43.516;11.890;2022-07-23T07:33:12;32.80;34.10
42145;DHT22;27813;43.516;11.890;2022-07-23T07:37:16;32.50;34.50
42145;DHT22;27813;43.516;11.890;2022-07-23T07:41:23;32.30;34.80
42145;DHT22;27813;43.516;11.890;2022-07-23T07:45:37;32.30;34.90
42145;DHT22;27813;43.516;11.890;2022-07-23T07:49:52;32.20;35.00
42145;DHT22;27813;43.516;11.890;2022-07-23T07:54:08;32.10;35.10
42145;DHT22;27813;43.516;11.890;2022-07-23T07:58:13;32.10;35.20
42145;DHT22;27813;43.516;11.890;2022-07-23T08:02:18;32.00;35.30
42145;DHT22;27813;43.516;11.890;2022-07-23T08:06:24;32.00;35.40
42145;DHT22;27813;43.516;11.890;2022-07-23T08:10:29;32.10;35.40
42145;DHT22;27813;43.516;11.890;2022-07-23T08:14:36;32.20;35.30
42145;DHT22;27813;43.516;11.890;2022-07-23T08:18:40;32.30;35.20
42145;DHT22;27813;43.516;11.890;2022-07-23T08:26:57;32.40;35.10
42145;DHT22;27813;43.516;11.890;2022-07-23T08:31:01;32.50;35.00
42145;DHT22;27813;43.516;11.890;2022-07-23T08:35:07;32.70;34.90
42145;DHT22;27813;43.516;11.890;2022-07-23T08:39:11;32.90;34.80
42145;DHT22;27813;43.516;11.890;2022-07-23T08:43:23;33.10;34.60
42145;DHT22;27813;43.516;11.890;2022-07-23T08:47:30;33.20;34.40
42145;DHT22;27813;43.516;11.890;2022-07-23T08:51:36;33.40;34.30
42145;DHT22;27813;43.516;11.890;2022-07-23T08:55:46;33.50;34.10
42145;DHT22;27813;43.516;11.890;2022-07-23T08:59:51;33.50;34.00
42145;DHT22;27813;43.516;11.890;2022-07-23T09:03:56;33.70;33.80
42145;DHT22;27813;43.516;11.890;2022-07-23T09:12:19;34.00;33.40
42145;DHT22;27813;43.516;11.890;2022-07-23T09:16:27;34.00;33.30
42145;DHT22;27813;43.516;11.890;2022-07-23T09:20:34;34.00;33.30
42145;DHT22;27813;43.516;11.890;2022-07-23T09:25:02;34.20;33.20
42145;DHT22;27813;43.516;11.890;2022-07-23T09:29:29;34.50;33.10
42145;DHT22;27813;43.516;11.890;2022-07-23T09:33:36;35.20;32.90
42145;DHT22;27813;43.516;11.890;2022-07-23T09:38:01;36.00;32.60
42145;DHT22;27813;43.516;11.890;2022-07-23T09:42:24;37.20;31.40
42145;DHT22;27813;43.516;11.890;2022-07-23T09:46:29;39.50;29.00
42145;DHT22;27813;43.516;11.890;2022-07-23T09:50:34;41.20;27.20
42145;DHT22;27813;43.516;11.890;2022-07-23T09:54:40;42.40;25.60
42145;DHT22;27813;43.516;11.890;2022-07-23T09:58:45;43.30;24.60
42145;DHT22;27813;43.516;11.890;2022-07-23T10:02:54;43.90;24.00
42145;DHT22;27813;43.516;11.890;2022-07-23T10:07:08;44.40;23.40
42145;DHT22;27813;43.516;11.890;2022-07-23T10:11:35;45.00;22.60
42145;DHT22;27813;43.516;11.890;2022-07-23T10:15:55;45.50;22.30
42145;DHT22;27813;43.516;11.890;2022-07-23T10:20:03;45.80;21.80
42145;DHT22;27813;43.516;11.890;2022-07-23T10:29:22;46.50;20.80
42145;DHT22;27813;43.516;11.890;2022-07-23T10:38:31;47.00;20.40
42145;DHT22;27813;43.516;11.890;2022-07-23T10:42:41;47.50;20.10
42145;DHT22;27813;43.516;11.890;2022-07-23T10:47:00;47.80;19.70
42145;DHT22;27813;43.516;11.890;2022-07-23T10:51:17;47.80;19.30
42145;DHT22;27813;43.516;11.890;2022-07-23T10:59:30;47.60;19.10
42145;DHT22;27813;43.516;11.890;2022-07-23T11:03:35;47.00;19.30
42145;DHT22;27813;43.516;11.890;2022-07-23T11:16:28;46.60;18.90
42145;DHT22;27813;43.516;11.890;2022-07-23T11:20:33;46.50;19.20
42145;DHT22;27813;43.516;11.890;2022-07-23T11:24:50;46.60;19.10
42145;DHT22;27813;43.516;11.890;2022-07-23T11:28:55;46.80;18.80
42145;DHT22;27813;43.516;11.890;2022-07-23T11:37:39;47.40;18.60
42145;DHT22;27813;43.516;11.890;2022-07-23T11:41:45;47.30;18.70
42145;DHT22;27813;43.516;11.890;2022-07-23T11:45:52;47.10;19.00
42145;DHT22;27813;43.516;11.890;2022-07-23T11:50:03;46.80;19.10
42145;DHT22;27813;43.516;11.890;2022-07-23T11:54:08;46.60;19.20
42145;DHT22;27813;43.516;11.890;2022-07-23T11:58:13;46.60;19.30
42145;DHT22;27813;43.516;11.890;2022-07-23T12:02:20;46.90;19.30
42145;DHT22;27813;43.516;11.890;2022-07-23T12:06:25;47.10;19.10
42145;DHT22;27813;43.516;11.890;2022-07-23T12:10:39;47.10;18.90
42145;DHT22;27813;43.516;11.890;2022-07-23T12:14:54;47.00;18.90
42145;DHT22;27813;43.516;11.890;2022-07-23T12:18:58;46.90;18.90
42145;DHT22;27813;43.516;11.890;2022-07-23T12:23:05;46.80;19.00
42145;DHT22;27813;43.516;11.890;2022-07-23T12:27:11;46.70;19.00
42145;DHT22;27813;43.516;11.890;2022-07-23T12:31:15;46.70;18.90
42145;DHT22;27813;43.516;11.890;2022-07-23T12:35:53;46.40;18.80
42145;DHT22;27813;43.516;11.890;2022-07-23T12:40:22;46.00;18.90
42145;DHT22;27813;43.516;11.890;2022-07-23T12:44:31;46.00;18.90
42145;DHT22;27813;43.516;11.890;2022-07-23T12:53:20;46.30;18.40
42145;DHT22;27813;43.516;11.890;2022-07-23T12:57:45;46.10;18.60
42145;DHT22;27813;43.516;11.890;2022-07-23T13:01:56;46.10;18.70
42145;DHT22;27813;43.516;11.890;2022-07-23T13:06:27;46.30;18.40
42145;DHT22;27813;43.516;11.890;2022-07-23T13:10:31;46.20;18.30
42145;DHT22;27813;43.516;11.890;2022-07-23T13:14:40;46.00;18.40
42145;DHT22;27813;43.516;11.890;2022-07-23T13:18:50;45.80;18.50
42145;DHT22;27813;43.516;11.890;2022-07-23T13:23:02;45.50;18.50
42145;DHT22;27813;43.516;11.890;2022-07-23T13:27:09;45.20;18.70
42145;DHT22;27813;43.516;11.890;2022-07-23T13:31:15;45.00;19.00
42145;DHT22;27813;43.516;11.890;2022-07-23T13:35:21;44.90;19.10
42145;DHT22;27813;43.516;11.890;2022-07-23T13:39:26;44.70;19.40
42145;DHT22;27813;43.516;11.890;2022-07-23T13:43:33;44.30;19.70
42145;DHT22;27813;43.516;11.890;2022-07-23T13:47:39;43.80;20.10
42145;DHT22;27813;43.516;11.890;2022-07-23T13:51:46;43.60;20.50
42145;DHT22;27813;43.516;11.890;2022-07-23T13:55:53;43.60;20.60
42145;DHT22;27813;43.516;11.890;2022-07-23T13:59:59;43.50;20.80
42145;DHT22;27813;43.516;11.890;2022-07-23T14:04:07;43.10;21.10
42145;DHT22;27813;43.516;11.890;2022-07-23T14:08:11;43.00;21.50
42145;DHT22;27813;43.516;11.890;2022-07-23T14:12:19;42.70;21.70
42145;DHT22;27813;43.516;11.890;2022-07-23T14:16:29;42.40;22.10
42145;DHT22;27813;43.516;11.890;2022-07-23T14:20:36;42.50;22.10
42145;DHT22;27813;43.516;11.890;2022-07-23T14:24:41;42.30;22.20
42145;DHT22;27813;43.516;11.890;2022-07-23T14:28:46;41.90;22.40
42145;DHT22;27813;43.516;11.890;2022-07-23T14:32:53;41.50;22.80
42145;DHT22;27813;43.516;11.890;2022-07-23T14:36:59;41.50;22.90
42145;DHT22;27813;43.516;11.890;2022-07-23T14:41:03;41.50;23.00
42145;DHT22;27813;43.516;11.890;2022-07-23T14:45:15;41.70;22.90
42145;DHT22;27813;43.516;11.890;2022-07-23T14:49:23;41.60;23.00
42145;DHT22;27813;43.516;11.890;2022-07-23T14:53:31;41.50;23.00
42145;DHT22;27813;43.516;11.890;2022-07-23T14:57:36;41.60;23.10
42145;DHT22;27813;43.516;11.890;2022-07-23T15:01:41;41.60;23.10
42145;DHT22;27813;43.516;11.890;2022-07-23T15:05:47;41.90;23.00
42145;DHT22;27813;43.516;11.890;2022-07-23T15:09:52;42.20;22.90
42145;DHT22;27813;43.516;11.890;2022-07-23T15:13:58;42.10;22.70
42145;DHT22;27813;43.516;11.890;2022-07-23T15:18:05;42.10;22.60
42145;DHT22;27813;43.516;11.890;2022-07-23T15:22:12;42.30;22.40
42145;DHT22;27813;43.516;11.890;2022-07-23T15:26:18;42.30;22.30
42145;DHT22;27813;43.516;11.890;2022-07-23T15:30:26;42.30;22.30
42145;DHT22;27813;43.516;11.890;2022-07-23T15:34:32;42.10;22.40
42145;DHT22;27813;43.516;11.890;2022-07-23T15:38:41;41.90;22.50
42145;DHT22;27813;43.516;11.890;2022-07-23T15:42:47;41.80;22.70
42145;DHT22;27813;43.516;11.890;2022-07-23T15:46:52;41.70;22.70
42145;DHT22;27813;43.516;11.890;2022-07-23T15:50:59;41.70;22.80
42145;DHT22;27813;43.516;11.890;2022-07-23T15:55:07;41.80;22.80
42145;DHT22;27813;43.516;11.890;2022-07-23T15:59:19;41.70;23.10
42145;DHT22;27813;43.516;11.890;2022-07-23T16:03:33;41.50;23.80
42145;DHT22;27813;43.516;11.890;2022-07-23T16:07:41;41.20;24.20
42145;DHT22;27813;43.516;11.890;2022-07-23T16:11:46;41.10;24.60
42145;DHT22;27813;43.516;11.890;2022-07-23T16:15:50;40.90;24.90
42145;DHT22;27813;43.516;11.890;2022-07-23T16:19:55;40.70;25.20
42145;DHT22;27813;43.516;11.890;2022-07-23T16:23:59;40.50;25.50
42145;DHT22;27813;43.516;11.890;2022-07-23T16:28:03;40.20;25.70
42145;DHT22;27813;43.516;11.890;2022-07-23T16:32:11;40.00;25.90
42145;DHT22;27813;43.516;11.890;2022-07-23T16:36:16;39.80;26.10
42145;DHT22;27813;43.516;11.890;2022-07-23T16:40:24;39.30;26.40
42145;DHT22;27813;43.516;11.890;2022-07-23T16:44:30;38.70;26.90
42145;DHT22;27813;43.516;11.890;2022-07-23T16:48:34;38.20;27.40
42145;DHT22;27813;43.516;11.890;2022-07-23T16:52:40;37.70;27.90
42145;DHT22;27813;43.516;11.890;2022-07-23T16:56:44;37.30;28.40
42145;DHT22;27813;43.516;11.890;2022-07-23T17:00:49;37.00;28.60
42145;DHT22;27813;43.516;11.890;2022-07-23T17:04:56;36.70;28.90
42145;DHT22;27813;43.516;11.890;2022-07-23T17:09:05;36.50;29.20
42145;DHT22;27813;43.516;11.890;2022-07-23T17:13:14;36.20;29.50
42145;DHT22;27813;43.516;11.890;2022-07-23T17:17:20;36.00;29.90
42145;DHT22;27813;43.516;11.890;2022-07-23T17:21:24;35.70;30.00
42145;DHT22;27813;43.516;11.890;2022-07-23T17:25:29;35.60;30.10
42145;DHT22;27813;43.516;11.890;2022-07-23T17:29:34;35.50;30.40
42145;DHT22;27813;43.516;11.890;2022-07-23T17:33:39;35.20;30.60
42145;DHT22;27813;43.516;11.890;2022-07-23T17:37:44;35.00;30.80
42145;DHT22;27813;43.516;11.890;2022-07-23T17:41:50;34.80;31.10
42145;DHT22;27813;43.516;11.890;2022-07-23T17:45:55;34.60;31.20
42145;DHT22;27813;43.516;11.890;2022-07-23T17:50:03;34.50;31.50
42145;DHT22;27813;43.516;11.890;2022-07-23T17:54:09;34.30;31.70
42145;DHT22;27813;43.516;11.890;2022-07-23T17:58:13;34.00;31.90
42145;DHT22;27813;43.516;11.890;2022-07-23T18:02:19;33.80;32.20
42145;DHT22;27813;43.516;11.890;2022-07-23T18:06:23;33.70;32.30
42145;DHT22;27813;43.516;11.890;2022-07-23T18:10:31;33.70;32.40
42145;DHT22;27813;43.516;11.890;2022-07-23T18:14:38;33.70;32.40
42145;DHT22;27813;43.516;11.890;2022-07-23T18:18:42;33.60;32.60
42145;DHT22;27813;43.516;11.890;2022-07-23T18:22:48;33.50;32.70
42145;DHT22;27813;43.516;11.890;2022-07-23T18:26:53;33.10;32.80
42145;DHT22;27813;43.516;11.890;2022-07-23T18:30:58;32.80;33.10
42145;DHT22;27813;43.516;11.890;2022-07-23T18:35:04;32.50;33.40
42145;DHT22;27813;43.516;11.890;2022-07-23T18:39:13;32.20;33.70
42145;DHT22;27813;43.516;11.890;2022-07-23T18:43:18;31.90;34.00
42145;DHT22;27813;43.516;11.890;2022-07-23T18:47:24;31.80;34.20
42145;DHT22;27813;43.516;11.890;2022-07-23T18:51:32;31.50;34.40
42145;DHT22;27813;43.516;11.890;2022-07-23T18:55:39;31.30;34.70
42145;DHT22;27813;43.516;11.890;2022-07-23T18:59:46;31.10;34.90
42145;DHT22;27813;43.516;11.890;2022-07-23T19:03:51;30.90;35.10
42145;DHT22;27813;43.516;11.890;2022-07-23T19:07:55;30.70;35.30
42145;DHT22;27813;43.516;11.890;2022-07-23T19:12:03;30.50;35.40
42145;DHT22;27813;43.516;11.890;2022-07-23T19:16:10;30.30;35.60
42145;DHT22;27813;43.516;11.890;2022-07-23T19:20:16;30.10;35.70
42145;DHT22;27813;43.516;11.890;2022-07-23T19:24:21;30.00;35.90
42145;DHT22;27813;43.516;11.890;2022-07-23T19:28:26;29.80;36.00
42145;DHT22;27813;43.516;11.890;2022-07-23T19:32:34;29.60;36.20
42145;DHT22;27813;43.516;11.890;2022-07-23T19:36:39;29.50;36.30
42145;DHT22;27813;43.516;11.890;2022-07-23T19:40:50;29.40;36.40
42145;DHT22;27813;43.516;11.890;2022-07-23T19:44:55;29.30;36.50
42145;DHT22;27813;43.516;11.890;2022-07-23T19:49:00;29.20;36.40
42145;DHT22;27813;43.516;11.890;2022-07-23T19:53:07;29.10;36.20
42145;DHT22;27813;43.516;11.890;2022-07-23T19:57:12;29.00;35.90
42145;DHT22;27813;43.516;11.890;2022-07-23T20:01:17;29.00;35.80
42145;DHT22;27813;43.516;11.890;2022-07-23T20:05:21;28.80;35.60
42145;DHT22;27813;43.516;11.890;2022-07-23T20:09:26;28.70;35.60
42145;DHT22;27813;43.516;11.890;2022-07-23T20:13:32;28.50;35.50
42145;DHT22;27813;43.516;11.890;2022-07-23T20:17:46;28.50;35.40
42145;DHT22;27813;43.516;11.890;2022-07-23T20:21:53;28.40;35.40
42145;DHT22;27813;43.516;11.890;2022-07-23T20:26:00;28.20;35.40
42145;DHT22;27813;43.516;11.890;2022-07-23T20:30:07;28.10;35.50
42145;DHT22;27813;43.516;11.890;2022-07-23T20:34:13;27.90;35.60
42145;DHT22;27813;43.516;11.890;2022-07-23T20:38:25;27.80;35.70
42145;DHT22;27813;43.516;11.890;2022-07-23T20:42:31;27.70;35.70
42145;DHT22;27813;43.516;11.890;2022-07-23T20:46:41;27.50;35.90
42145;DHT22;27813;43.516;11.890;2022-07-23T20:50:45;27.50;36.00
42145;DHT22;27813;43.516;11.890;2022-07-23T20:54:50;27.60;36.00
42145;DHT22;27813;43.516;11.890;2022-07-23T20:58:55;27.70;36.00
42145;DHT22;27813;43.516;11.890;2022-07-23T21:03:00;27.80;35.90
42145;DHT22;27813;43.516;11.890;2022-07-23T21:07:08;27.70;36.00
42145;DHT22;27813;43.516;11.890;2022-07-23T21:11:21;27.70;36.00
42145;DHT22;27813;43.516;11.890;2022-07-23T21:15:26;27.70;36.10
42145;DHT22;27813;43.516;11.890;2022-07-23T21:19:31;27.60;36.20
42145;DHT22;27813;43.516;11.890;2022-07-23T21:23:43;27.50;36.40
42145;DHT22;27813;43.516;11.890;2022-07-23T21:27:51;27.30;36.60
42145;DHT22;27813;43.516;11.890;2022-07-23T21:31:56;27.20;36.90
42145;DHT22;27813;43.516;11.890;2022-07-23T21:36:02;27.00;37.30
42145;DHT22;27813;43.516;11.890;2022-07-23T21:40:07;26.90;37.60
42145;DHT22;27813;43.516;11.890;2022-07-23T21:44:12;26.60;37.80
42145;DHT22;27813;43.516;11.890;2022-07-23T21:48:18;26.50;38.20
42145;DHT22;27813;43.516;11.890;2022-07-23T21:52:31;26.30;38.40
42145;DHT22;27813;43.516;11.890;2022-07-23T21:56:37;26.20;38.50
42145;DHT22;27813;43.516;11.890;2022-07-23T22:00:42;26.20;38.60
42145;DHT22;27813;43.516;11.890;2022-07-23T22:04:48;26.10;38.80
42145;DHT22;27813;43.516;11.890;2022-07-23T22:08:54;26.00;38.90
42145;DHT22;27813;43.516;11.890;2022-07-23T22:13:00;26.00;39.00
42145;DHT22;27813;43.516;11.890;2022-07-23T22:17:04;25.90;39.20
42145;DHT22;27813;43.516;11.890;2022-07-23T22:21:09;25.70;39.50
42145;DHT22;27813;43.516;11.890;2022-07-23T22:25:33;25.50;39.80
42145;DHT22;27813;43.516;11.890;2022-07-23T22:29:38;25.40;40.00
42145;DHT22;27813;43.516;11.890;2022-07-23T22:33:42;25.20;40.10
42145;DHT22;27813;43.516;11.890;2022-07-23T22:37:47;25.10;40.40
42145;DHT22;27813;43.516;11.890;2022-07-23T22:41:53;24.90;40.60
42145;DHT22;27813;43.516;11.890;2022-07-23T22:45:58;24.90;40.90
42145;DHT22;27813;43.516;11.890;2022-07-23T22:50:04;24.70;41.20
42145;DHT22;27813;43.516;11.890;2022-07-23T22:54:14;24.60;41.50
42145;DHT22;27813;43.516;11.890;2022-07-23T22:58:19;24.50;41.70
42145;DHT22;27813;43.516;11.890;2022-07-23T23:02:27;24.50;41.90
42145;DHT22;27813;43.516;11.890;2022-07-23T23:06:32;24.40;42.00
42145;DHT22;27813;43.516;11.890;2022-07-23T23:10:36;24.30;42.10
42145;DHT22;27813;43.516;11.890;2022-07-23T23:14:40;24.30;42.20
42145;DHT22;27813;43.516;11.890;2022-07-23T23:18:46;24.20;42.40
42145;DHT22;27813;43.516;11.890;2022-07-23T23:22:51;24.20;42.50
42145;DHT22;27813;43.516;11.890;2022-07-23T23:26:55;24.10;42.70
